Decoded Metar for KSFM (SANFORD MUNI in ME, USA) (IATA:SFM) | Meteo·Mobile Aviation Weather
aviador You're here:

KSFM Decoded Metar

SANFORD MUNI in ME, USA
Report Time2019-02-22 19:56:00
UTC Time2019-02-22 21:00:49
Flight Rules vfr VFR
Wind290° at 10 kt
W.Decomp.*RWY 32: 9.7 kt HW 2.2 kt LCW
RWY 25: 5.4 kt HW 8.4 kt RCW
W.Rank290° ranks 2
Current wind is above 290° avg. (8.5)
Visibility9999 m
Phenomena:N/A
Clouds:N/A
Expected CloudBase > 4,800 ft AGL from Temp-Dew spread
CeilingNone
Temp04°C (ISA -11)
Dew Point-8°C (42% RH)
AAT-2.5°C
QNH1025 hPa
Density Alt-1,388 ft
Elevation243 ft
Report Wrong Elevation
Raw Report
KSFM 221956Z AUTO 29010KT 10SM CLR 04/M08 A3027 RMK AO2 SLP254
T00391078 PNO $=

Extra information for KSFM:More info

Metar Taf Metar & Taf Last 4 Metars F.Rules Stats Wind Profile Meteogram Temp Stats Airport Information Weather charts Add Link Nearby VenuesMetar ALERT Operation Metar Decoded Social comments

AIRNAV info for KSFM